createdAt,value
2023-04-01T00:00:02.933Z,9.40
2023-04-01T00:01:02.890Z,9.40
2023-04-01T00:02:02.841Z,9.40
2023-04-01T00:03:02.859Z,9.40
2023-04-01T00:04:03.080Z,9.40
2023-04-01T00:05:02.983Z,9.40
2023-04-01T00:06:02.964Z,9.40
2023-04-01T00:07:02.908Z,9.40
2023-04-01T00:08:02.881Z,9.40
2023-04-01T00:09:02.948Z,9.40
2023-04-01T00:10:03.139Z,9.40
2023-04-01T00:11:03.169Z,9.40
2023-04-01T00:12:03.052Z,9.40
2023-04-01T00:13:02.985Z,9.40
2023-04-01T00:14:03.008Z,9.40
2023-04-01T00:15:03.058Z,9.40
2023-04-01T00:16:03.440Z,9.40
2023-04-01T00:17:03.075Z,9.40
2023-04-01T00:18:03.094Z,9.40
2023-04-01T00:19:02.934Z,9.40
2023-04-01T00:20:02.937Z,9.40
2023-04-01T00:21:03.065Z,9.40
2023-04-01T00:22:03.036Z,9.40
2023-04-01T00:23:03.003Z,9.40
2023-04-01T00:24:03.021Z,9.40
2023-04-01T00:25:03.074Z,9.40
2023-04-01T00:26:03.048Z,9.40
2023-04-01T00:27:03.058Z,9.40
2023-04-01T00:28:03.060Z,9.40
2023-04-01T00:29:03.043Z,9.40
2023-04-01T00:30:03.070Z,9.40
2023-04-01T00:31:02.999Z,9.40
2023-04-01T00:32:03.053Z,9.40
2023-04-01T00:33:03.044Z,9.40
2023-04-01T00:34:03.021Z,9.40
2023-04-01T00:35:03.134Z,9.40
2023-04-01T00:36:03.175Z,9.40
2023-04-01T00:37:03.072Z,9.40
2023-04-01T00:38:03.139Z,9.40
2023-04-01T00:39:03.176Z,9.40
2023-04-01T00:40:03.156Z,9.40
2023-04-01T00:41:03.107Z,9.40
2023-04-01T00:42:03.156Z,9.40
2023-04-01T00:43:03.054Z,9.40
2023-04-01T00:44:03.110Z,9.40
2023-04-01T00:45:03.170Z,9.40
2023-04-01T00:46:03.155Z,9.40
2023-04-01T00:47:03.195Z,9.40
2023-04-01T00:48:03.220Z,9.40
2023-04-01T00:49:03.127Z,9.40
2023-04-01T00:50:03.191Z,9.40
2023-04-01T00:51:03.209Z,9.40
2023-04-01T00:52:03.288Z,9.30
2023-04-01T00:53:03.286Z,9.40
2023-04-01T00:54:03.343Z,9.30
2023-04-01T00:55:03.501Z,9.30
2023-04-01T00:56:03.524Z,9.30
2023-04-01T00:57:03.552Z,9.30
2023-04-01T00:58:03.480Z,9.30
2023-04-01T00:59:03.665Z,9.30
2023-04-01T01:00:03.590Z,9.30
2023-04-01T01:01:03.669Z,9.30
2023-04-01T01:02:03.628Z,9.30
2023-04-01T01:03:03.595Z,9.30
2023-04-01T01:04:03.589Z,9.30
2023-04-01T01:05:02.649Z,9.30
2023-04-01T01:06:02.765Z,9.30
2023-04-01T01:07:02.743Z,9.30
2023-04-01T01:08:02.686Z,9.30
2023-04-01T01:09:02.822Z,9.30
2023-04-01T01:10:02.846Z,9.30
2023-04-01T01:11:02.784Z,9.30
2023-04-01T01:12:02.858Z,9.30
2023-04-01T01:13:02.866Z,9.30
2023-04-01T01:14:02.862Z,9.30
2023-04-01T01:15:02.836Z,9.30
2023-04-01T01:16:02.781Z,9.30
2023-04-01T01:17:02.856Z,9.30
2023-04-01T01:18:02.884Z,9.30
2023-04-01T01:19:02.809Z,9.30
2023-04-01T01:20:02.934Z,9.30
2023-04-01T01:21:02.847Z,9.30
2023-04-01T01:22:02.909Z,9.30
2023-04-01T01:23:02.931Z,9.30
2023-04-01T01:24:02.902Z,9.30
2023-04-01T01:25:02.924Z,9.30
2023-04-01T01:26:02.974Z,9.30
2023-04-01T01:27:02.921Z,9.30
2023-04-01T01:28:02.993Z,9.30
2023-04-01T01:29:02.953Z,9.30
2023-04-01T01:30:03.011Z,9.30
2023-04-01T01:31:03.022Z,9.30
2023-04-01T01:32:03.083Z,9.30
2023-04-01T01:33:03.210Z,9.30
2023-04-01T01:34:03.102Z,9.30
2023-04-01T01:35:03.083Z,9.30
2023-04-01T01:36:03.051Z,9.30
2023-04-01T01:37:02.961Z,9.30
2023-04-01T01:38:02.968Z,9.30
2023-04-01T01:39:02.953Z,9.30
2023-04-01T01:40:02.905Z,9.30
2023-04-01T01:41:02.883Z,9.30
2023-04-01T01:42:02.874Z,9.30
2023-04-01T01:43:02.796Z,9.20
2023-04-01T01:44:02.730Z,9.20
2023-04-01T01:45:02.783Z,9.20
2023-04-01T01:46:02.878Z,9.20
2023-04-01T01:47:02.805Z,9.20
2023-04-01T01:48:02.807Z,9.20
2023-04-01T01:49:02.784Z,9.20
2023-04-01T01:50:02.695Z,9.20
2023-04-01T01:51:02.724Z,9.20
2023-04-01T01:52:02.750Z,9.20
2023-04-01T01:53:02.742Z,9.20
2023-04-01T01:54:02.780Z,9.20
2023-04-01T01:55:02.787Z,9.20
2023-04-01T01:56:02.734Z,9.20
2023-04-01T01:57:02.808Z,9.20
2023-04-01T01:58:02.737Z,9.20
2023-04-01T01:59:02.743Z,9.20
2023-04-01T02:00:02.729Z,9.20
2023-04-01T02:01:02.701Z,9.20
2023-04-01T02:02:02.713Z,9.20
2023-04-01T02:03:02.707Z,9.20
2023-04-01T02:04:02.968Z,9.20
2023-04-01T02:05:02.994Z,9.20
2023-04-01T02:06:03.103Z,9.20
2023-04-01T02:07:03.167Z,9.20
2023-04-01T02:08:03.116Z,9.20
2023-04-01T02:09:03.277Z,9.20
2023-04-01T02:10:03.199Z,9.20
2023-04-01T02:11:03.521Z,9.20
2023-04-01T02:12:03.426Z,9.20
2023-04-01T02:13:03.410Z,9.20
2023-04-01T02:14:03.389Z,9.10
2023-04-01T02:15:03.405Z,9.10
2023-04-01T02:16:03.416Z,9.10
2023-04-01T02:17:03.291Z,9.10
2023-04-01T02:18:03.513Z,9.10
2023-04-01T02:19:03.423Z,9.10
2023-04-01T02:20:03.407Z,9.10
2023-04-01T02:21:03.360Z,9.10
2023-04-01T02:22:03.448Z,9.10
2023-04-01T02:23:03.434Z,9.10
2023-04-01T02:24:03.353Z,9.10
2023-04-01T02:25:03.315Z,9.10
2023-04-01T02:26:03.266Z,9.10
2023-04-01T02:27:03.277Z,9.10
2023-04-01T02:28:03.381Z,9.10
2023-04-01T02:29:03.267Z,9.10
2023-04-01T02:30:03.304Z,9.10
2023-04-01T02:31:03.358Z,9.10
2023-04-01T02:32:03.408Z,9.10
2023-04-01T02:33:03.441Z,9.00
2023-04-01T02:34:03.474Z,9.10
2023-04-01T02:35:03.611Z,9.00
2023-04-01T02:36:03.519Z,9.00
2023-04-01T02:37:03.468Z,9.00
2023-04-01T02:38:03.487Z,9.00
2023-04-01T02:39:03.582Z,9.00
2023-04-01T02:40:03.485Z,9.00
2023-04-01T02:41:03.451Z,9.00
2023-04-01T02:42:03.492Z,9.00
2023-04-01T02:43:03.618Z,9.00
2023-04-01T02:44:02.673Z,9.00
2023-04-01T02:45:02.741Z,9.00
2023-04-01T02:46:02.597Z,9.00
2023-04-01T02:47:02.801Z,9.00
2023-04-01T02:48:02.800Z,9.00
2023-04-01T02:49:02.769Z,9.00
2023-04-01T02:50:02.745Z,9.00
2023-04-01T02:51:02.823Z,9.00
2023-04-01T02:52:02.812Z,8.90
2023-04-01T02:53:02.839Z,8.90
2023-04-01T02:54:02.774Z,8.90
2023-04-01T02:55:02.864Z,8.90
2023-04-01T02:56:02.834Z,9.00
2023-04-01T02:57:02.881Z,8.90
2023-04-01T02:58:02.845Z,8.90
2023-04-01T02:59:02.750Z,8.90
2023-04-01T03:00:02.783Z,9.00
2023-04-01T03:01:02.775Z,9.00
2023-04-01T03:02:02.936Z,8.90
2023-04-01T03:03:02.996Z,8.90
2023-04-01T03:04:02.875Z,9.00
2023-04-01T03:05:04.107Z,8.90
2023-04-01T03:06:02.732Z,8.90
2023-04-01T03:07:02.819Z,9.00
2023-04-01T03:08:02.827Z,8.90
2023-04-01T03:09:03.004Z,8.90
2023-04-01T03:10:03.078Z,8.90
2023-04-01T03:11:03.191Z,8.90
2023-04-01T03:12:03.216Z,8.90
2023-04-01T03:13:03.311Z,8.90
2023-04-01T03:14:03.382Z,8.90
2023-04-01T03:15:10.537Z,8.90
2023-04-01T03:16:03.356Z,8.90
2023-04-01T03:17:03.399Z,8.90
2023-04-01T03:18:03.353Z,8.90
2023-04-01T03:19:03.371Z,8.90
2023-04-01T03:20:03.486Z,8.90
2023-04-01T03:21:03.445Z,8.90
2023-04-01T03:22:03.542Z,8.90
2023-04-01T03:23:03.489Z,8.90
2023-04-01T03:24:03.488Z,8.90
2023-04-01T03:25:03.468Z,8.90
2023-04-01T03:26:03.342Z,8.90
2023-04-01T03:27:03.381Z,8.90
2023-04-01T03:28:03.363Z,8.90
2023-04-01T03:29:03.356Z,8.90
2023-04-01T03:30:03.399Z,8.90
2023-04-01T03:31:03.441Z,8.90
2023-04-01T03:32:03.424Z,8.90
2023-04-01T03:33:03.427Z,8.90
2023-04-01T03:34:03.400Z,8.90
2023-04-01T03:35:03.442Z,8.90
2023-04-01T03:36:03.305Z,8.90
2023-04-01T03:37:03.367Z,8.90
2023-04-01T03:38:03.365Z,8.90
2023-04-01T03:39:03.300Z,8.90
2023-04-01T03:40:03.273Z,8.90
2023-04-01T03:41:03.343Z,8.90
2023-04-01T03:42:03.305Z,8.90
2023-04-01T03:43:03.493Z,8.90
2023-04-01T03:44:03.388Z,8.90
2023-04-01T03:45:03.394Z,8.90
2023-04-01T03:46:03.404Z,8.90
2023-04-01T03:47:03.490Z,8.90
2023-04-01T03:48:03.503Z,8.90
2023-04-01T03:49:03.526Z,8.90
2023-04-01T03:50:03.532Z,8.90
2023-04-01T03:51:02.923Z,8.90
2023-04-01T03:52:02.908Z,8.90
2023-04-01T03:53:03.013Z,8.90
2023-04-01T03:54:02.974Z,8.90
2023-04-01T03:55:02.988Z,8.90
2023-04-01T03:56:02.918Z,8.90
2023-04-01T03:57:02.873Z,8.90
2023-04-01T03:58:02.798Z,8.90
2023-04-01T03:59:02.884Z,8.90
2023-04-01T04:00:02.840Z,8.90
2023-04-01T04:01:02.786Z,8.90
2023-04-01T04:02:02.696Z,8.90
2023-04-01T04:03:02.810Z,8.90
2023-04-01T04:04:02.692Z,8.90
2023-04-01T04:05:02.669Z,8.90
2023-04-01T04:06:02.731Z,8.90
2023-04-01T04:07:02.734Z,8.90
2023-04-01T04:08:02.711Z,9.00
2023-04-01T04:09:02.789Z,9.00
2023-04-01T04:10:02.782Z,9.00
2023-04-01T04:11:02.822Z,9.00
2023-04-01T04:12:02.775Z,9.00
2023-04-01T04:13:02.710Z,9.00
2023-04-01T04:14:02.812Z,9.00
2023-04-01T04:15:02.871Z,9.00
2023-04-01T04:16:02.903Z,9.00
2023-04-01T04:17:02.824Z,9.00
2023-04-01T04:18:02.812Z,9.00
2023-04-01T04:19:02.852Z,9.00
2023-04-01T04:20:02.819Z,9.00
2023-04-01T04:21:02.798Z,9.00
2023-04-01T04:22:02.812Z,9.00
2023-04-01T04:23:02.788Z,9.00
2023-04-01T04:24:02.792Z,9.00
2023-04-01T04:25:03.025Z,9.00
2023-04-01T04:26:03.200Z,9.00
2023-04-01T04:27:03.232Z,9.00
2023-04-01T04:28:03.154Z,9.00
2023-04-01T04:29:03.142Z,9.00
2023-04-01T04:30:03.156Z,9.00
2023-04-01T04:31:03.119Z,9.00
2023-04-01T04:32:03.222Z,9.00
2023-04-01T04:33:03.297Z,9.00
2023-04-01T04:34:03.236Z,9.00
2023-04-01T04:35:03.184Z,9.00
2023-04-01T04:36:03.117Z,9.00
2023-04-01T04:37:03.241Z,9.00
2023-04-01T04:38:03.201Z,9.00
2023-04-01T04:39:03.377Z,9.00
2023-04-01T04:40:03.347Z,9.00
2023-04-01T04:41:03.351Z,9.00
2023-04-01T04:42:03.453Z,9.00
2023-04-01T04:43:03.424Z,9.00
2023-04-01T04:44:03.444Z,9.00
2023-04-01T04:45:03.470Z,9.00
2023-04-01T04:46:03.561Z,9.00
2023-04-01T04:47:03.518Z,9.00
2023-04-01T04:48:03.590Z,9.00
2023-04-01T04:49:03.488Z,9.00
2023-04-01T04:50:03.512Z,9.00
2023-04-01T04:51:03.566Z,9.00
2023-04-01T04:52:02.722Z,9.00
2023-04-01T04:53:02.609Z,9.00
2023-04-01T04:54:02.761Z,9.00
2023-04-01T04:55:02.731Z,9.00
2023-04-01T04:56:02.670Z,9.00
2023-04-01T04:57:02.784Z,9.00
2023-04-01T04:58:02.777Z,9.00
2023-04-01T04:59:02.713Z,9.00
2023-04-01T05:00:02.826Z,9.00
2023-04-01T05:01:02.863Z,9.00
2023-04-01T05:02:02.794Z,9.00
2023-04-01T05:03:02.853Z,9.00
2023-04-01T05:04:02.865Z,9.00
2023-04-01T05:05:02.918Z,9.00
2023-04-01T05:06:02.951Z,9.00
2023-04-01T05:07:02.926Z,9.00
2023-04-01T05:08:02.907Z,9.00
2023-04-01T05:09:02.928Z,9.00
2023-04-01T05:10:02.988Z,9.00
2023-04-01T05:11:02.947Z,9.00
2023-04-01T05:12:03.016Z,9.00
2023-04-01T05:13:02.984Z,9.00
2023-04-01T05:14:03.001Z,9.10
2023-04-01T05:15:02.948Z,9.10
2023-04-01T05:16:02.894Z,9.10
2023-04-01T05:17:03.022Z,9.10
2023-04-01T05:18:03.010Z,9.00
2023-04-01T05:19:02.912Z,9.10
2023-04-01T05:20:02.885Z,9.10
2023-04-01T05:21:02.889Z,9.10
2023-04-01T05:22:02.847Z,9.10
2023-04-01T05:23:02.905Z,9.00
2023-04-01T05:24:03.017Z,9.00
2023-04-01T05:25:03.029Z,9.10
2023-04-01T05:26:03.097Z,9.00
2023-04-01T05:27:03.016Z,9.10
2023-04-01T05:28:03.034Z,9.00
2023-04-01T05:29:03.048Z,9.00
2023-04-01T05:30:02.982Z,9.00
2023-04-01T05:31:03.013Z,9.00
2023-04-01T05:32:02.977Z,9.00
2023-04-01T05:33:03.063Z,9.00
2023-04-01T05:34:03.066Z,9.00
2023-04-01T05:35:03.059Z,9.10
2023-04-01T05:36:03.101Z,9.10
2023-04-01T05:37:02.965Z,9.10
2023-04-01T05:38:03.063Z,9.10
2023-04-01T05:39:02.957Z,9.10
2023-04-01T05:40:02.982Z,9.10
2023-04-01T05:41:02.967Z,9.10
2023-04-01T05:42:03.072Z,9.00
2023-04-01T05:43:03.006Z,9.00
2023-04-01T05:44:02.961Z,9.00
2023-04-01T05:45:02.956Z,9.00
2023-04-01T05:46:03.037Z,9.00
2023-04-01T05:47:03.142Z,9.00
2023-04-01T05:48:03.083Z,9.00
2023-04-01T05:49:03.142Z,9.00
2023-04-01T05:50:03.200Z,9.00
2023-04-01T05:51:03.295Z,9.00
2023-04-01T05:52:03.499Z,9.00
2023-04-01T05:53:03.491Z,9.00
2023-04-01T05:54:03.356Z,9.00
2023-04-01T05:55:03.417Z,9.00
2023-04-01T05:56:03.643Z,9.00
2023-04-01T05:57:03.618Z,9.00
2023-04-01T05:58:03.649Z,9.00
2023-04-01T05:59:02.668Z,9.00
2023-04-01T06:00:04.008Z,9.00
2023-04-01T06:01:10.034Z,9.00
2023-04-01T06:02:02.949Z,9.00
2023-04-01T06:03:02.987Z,9.00
2023-04-01T06:04:03.004Z,9.00
2023-04-01T06:05:03.059Z,9.00
2023-04-01T06:06:03.036Z,9.00
2023-04-01T06:07:03.088Z,9.00
2023-04-01T06:08:03.228Z,9.00
2023-04-01T06:09:03.114Z,9.00
2023-04-01T06:10:03.240Z,9.00
2023-04-01T06:11:03.298Z,9.00
2023-04-01T06:12:03.352Z,9.00
2023-04-01T06:13:03.320Z,9.00
2023-04-01T06:14:03.416Z,9.00
2023-04-01T06:15:03.448Z,9.00
2023-04-01T06:16:03.568Z,9.00
2023-04-01T06:17:03.549Z,9.00
2023-04-01T06:18:03.726Z,9.00
2023-04-01T06:19:03.584Z,9.00
2023-04-01T06:20:03.487Z,9.10
2023-04-01T06:21:03.570Z,9.00
2023-04-01T06:22:02.635Z,9.00
2023-04-01T06:23:02.798Z,9.00
2023-04-01T06:24:02.737Z,9.10
2023-04-01T06:25:02.777Z,9.10
2023-04-01T06:26:02.900Z,9.00
2023-04-01T06:27:02.868Z,9.00
2023-04-01T06:28:02.957Z,9.10
2023-04-01T06:29:03.008Z,9.10
2023-04-01T06:30:03.094Z,9.00
2023-04-01T06:31:03.004Z,9.10
2023-04-01T06:32:02.990Z,9.00
2023-04-01T06:33:03.088Z,9.10
2023-04-01T06:34:03.207Z,9.00
2023-04-01T06:35:02.938Z,9.10
2023-04-01T06:36:03.013Z,9.10
2023-04-01T06:37:03.016Z,9.10
2023-04-01T06:38:02.965Z,9.10
2023-04-01T06:39:02.977Z,9.10
2023-04-01T06:40:03.013Z,9.10
2023-04-01T06:41:03.009Z,9.10
2023-04-01T06:42:02.908Z,9.10
2023-04-01T06:43:02.845Z,9.20
2023-04-01T06:44:02.891Z,9.20
2023-04-01T06:45:02.996Z,9.20
2023-04-01T06:46:02.942Z,9.20
2023-04-01T06:47:03.036Z,9.20
2023-04-01T06:48:03.078Z,9.20
2023-04-01T06:49:03.289Z,9.20
2023-04-01T06:50:03.124Z,9.20
2023-04-01T06:51:03.046Z,9.20
2023-04-01T06:52:03.109Z,9.20
2023-04-01T06:53:03.107Z,9.20
2023-04-01T06:54:03.186Z,9.30
2023-04-01T06:55:03.273Z,9.30
2023-04-01T06:56:03.221Z,9.30
2023-04-01T06:57:03.318Z,9.30
2023-04-01T06:58:03.362Z,9.30
2023-04-01T06:59:03.453Z,9.30
2023-04-01T07:00:03.390Z,9.40
2023-04-01T07:01:03.435Z,9.40
2023-04-01T07:02:03.395Z,9.40
2023-04-01T07:03:04.885Z,9.40
2023-04-01T07:04:03.503Z,9.40
2023-04-01T07:05:03.701Z,9.50
2023-04-01T07:06:08.592Z,9.50
2023-04-01T07:07:03.494Z,9.50
2023-04-01T07:08:03.546Z,9.60
2023-04-01T07:09:05.101Z,9.60
2023-04-01T07:10:03.599Z,9.60
2023-04-01T07:11:03.588Z,9.70
2023-04-01T07:12:03.550Z,9.70
2023-04-01T07:13:03.591Z,9.80
2023-04-01T07:14:03.597Z,9.90
2023-04-01T07:15:02.706Z,9.90
2023-04-01T07:16:02.796Z,10.00
2023-04-01T07:17:02.765Z,10.10
2023-04-01T07:18:02.757Z,10.20
2023-04-01T07:19:02.781Z,10.20
2023-04-01T07:20:02.874Z,10.30
2023-04-01T07:21:02.930Z,10.40
2023-04-01T07:22:03.164Z,10.40
2023-04-01T07:23:03.067Z,10.50
2023-04-01T07:24:03.017Z,10.60
2023-04-01T07:25:03.084Z,10.60
2023-04-01T07:26:03.241Z,10.70
2023-04-01T07:27:03.118Z,10.70
2023-04-01T07:28:03.073Z,10.80
2023-04-01T07:29:03.094Z,10.90
2023-04-01T07:30:03.014Z,10.90
2023-04-01T07:31:03.042Z,11.00
2023-04-01T07:32:03.150Z,11.00
2023-04-01T07:33:03.510Z,11.10
2023-04-01T07:34:03.543Z,11.10
2023-04-01T07:35:03.685Z,11.20
2023-04-01T07:36:03.650Z,11.20
2023-04-01T07:37:02.833Z,11.20
2023-04-01T07:38:02.866Z,11.30
2023-04-01T07:39:03.203Z,11.30
2023-04-01T07:40:03.211Z,11.40
2023-04-01T07:41:03.041Z,11.40
2023-04-01T07:42:03.062Z,11.50
2023-04-01T07:43:08.692Z,11.50
2023-04-01T07:44:03.172Z,11.60
2023-04-01T07:45:03.246Z,11.60
2023-04-01T07:46:03.253Z,11.60
2023-04-01T07:47:03.220Z,11.60
2023-04-01T07:48:03.348Z,11.60
2023-04-01T07:49:03.272Z,11.70
2023-04-01T07:50:03.321Z,11.70
2023-04-01T07:51:03.222Z,11.70
2023-04-01T07:52:03.323Z,11.60
2023-04-01T07:53:03.344Z,11.60
2023-04-01T07:54:03.291Z,11.60
2023-04-01T07:55:03.331Z,11.60
2023-04-01T07:56:03.469Z,11.60
2023-04-01T07:57:03.409Z,11.60
2023-04-01T07:58:03.592Z,11.50
2023-04-01T07:59:03.642Z,11.50
2023-04-01T08:00:03.524Z,11.50
2023-04-01T08:01:03.651Z,11.50
2023-04-01T08:02:03.594Z,11.50
2023-04-01T08:03:02.763Z,11.50
2023-04-01T08:04:03.635Z,11.40
2023-04-01T08:05:03.723Z,11.40
2023-04-01T08:06:02.667Z,11.40
2023-04-01T08:07:02.790Z,11.40
2023-04-01T08:08:02.808Z,11.40
2023-04-01T08:09:02.901Z,11.40
2023-04-01T08:10:02.934Z,11.40
2023-04-01T08:11:02.915Z,11.40
2023-04-01T08:12:03.022Z,11.40
2023-04-01T08:13:02.922Z,11.40
2023-04-01T08:14:02.944Z,11.40
2023-04-01T08:15:03.039Z,11.40
2023-04-01T08:16:03.179Z,11.40
2023-04-01T08:17:02.980Z,11.40
2023-04-01T08:18:03.150Z,11.40
2023-04-01T08:19:03.211Z,11.40
2023-04-01T08:20:03.220Z,11.40
2023-04-01T08:21:03.117Z,11.40
2023-04-01T08:22:03.110Z,11.40
2023-04-01T08:23:02.963Z,11.40
2023-04-01T08:24:03.046Z,11.40
2023-04-01T08:25:03.188Z,11.40
2023-04-01T08:26:03.125Z,11.40
2023-04-01T08:27:03.212Z,11.40
2023-04-01T08:28:03.209Z,11.40
2023-04-01T08:29:03.090Z,11.40
2023-04-01T08:30:03.103Z,11.40
2023-04-01T08:31:03.136Z,11.40
2023-04-01T08:32:03.277Z,11.40
2023-04-01T08:33:03.290Z,11.40
2023-04-01T08:34:03.398Z,11.40
2023-04-01T08:35:03.538Z,11.40
2023-04-01T08:36:03.556Z,11.40
2023-04-01T08:37:03.578Z,11.40
2023-04-01T08:38:03.525Z,11.40
2023-04-01T08:39:03.580Z,11.40
2023-04-01T08:40:03.599Z,11.40
2023-04-01T08:41:02.666Z,11.40
2023-04-01T08:42:03.667Z,11.40
2023-04-01T08:43:03.565Z,11.40
2023-04-01T08:44:03.520Z,11.40
2023-04-01T08:45:03.662Z,11.40
2023-04-01T08:46:03.641Z,11.40
2023-04-01T08:47:03.565Z,11.40
2023-04-01T08:48:03.545Z,11.40
2023-04-01T08:49:03.663Z,11.40
2023-04-01T08:50:03.580Z,11.40
2023-04-01T08:51:05.298Z,11.40
2023-04-01T08:52:03.561Z,11.40
2023-04-01T08:53:03.545Z,11.50
2023-04-01T08:54:03.622Z,11.50
2023-04-01T08:55:03.606Z,11.50
2023-04-01T08:56:03.509Z,11.50
2023-04-01T08:57:03.622Z,11.50
2023-04-01T08:58:03.510Z,11.50
2023-04-01T08:59:03.617Z,11.50
2023-04-01T09:00:03.537Z,11.50
2023-04-01T09:01:03.523Z,11.60
2023-04-01T09:02:03.592Z,11.60
2023-04-01T09:03:03.687Z,11.60
2023-04-01T09:04:03.712Z,11.60
2023-04-01T09:05:03.585Z,11.60
2023-04-01T09:06:03.692Z,11.60
2023-04-01T09:07:03.575Z,11.60
2023-04-01T09:08:02.654Z,11.60
2023-04-01T09:09:03.576Z,11.60
2023-04-01T09:10:03.640Z,11.60
2023-04-01T09:11:02.676Z,11.60
2023-04-01T09:12:03.752Z,11.60
2023-04-01T09:13:03.640Z,11.70
2023-04-01T09:14:03.652Z,11.70
2023-04-01T09:15:03.677Z,11.70
2023-04-01T09:16:02.718Z,11.70
2023-04-01T09:17:02.784Z,11.70
2023-04-01T09:18:02.821Z,11.70
2023-04-01T09:19:02.967Z,11.70
2023-04-01T09:20:02.945Z,11.80
2023-04-01T09:21:02.763Z,11.80
2023-04-01T09:22:02.980Z,11.80
2023-04-01T09:23:03.016Z,11.80
2023-04-01T09:24:03.091Z,11.80
2023-04-01T09:25:03.041Z,11.80
2023-04-01T09:26:03.133Z,11.80
2023-04-01T09:27:03.073Z,11.90
2023-04-01T09:28:03.034Z,11.90
2023-04-01T09:29:03.127Z,11.90
2023-04-01T09:30:03.041Z,12.00
2023-04-01T09:31:03.202Z,12.00
2023-04-01T09:32:03.178Z,12.00
2023-04-01T09:33:03.173Z,12.00
2023-04-01T09:34:03.239Z,12.00
2023-04-01T09:35:03.123Z,12.00
2023-04-01T09:36:03.232Z,12.00
2023-04-01T09:37:03.310Z,12.00
2023-04-01T09:38:03.386Z,12.00
2023-04-01T09:39:03.314Z,12.00
2023-04-01T09:40:03.312Z,12.00
2023-04-01T09:41:03.598Z,12.00
2023-04-01T09:42:03.394Z,12.00
2023-04-01T09:43:03.538Z,12.00
2023-04-01T09:44:03.563Z,12.00
2023-04-01T09:45:03.586Z,12.00
2023-04-01T09:46:03.603Z,12.00
2023-04-01T09:47:03.548Z,12.00
2023-04-01T09:48:03.767Z,12.00
2023-04-01T09:49:03.581Z,12.00
2023-04-01T09:50:03.556Z,12.00
2023-04-01T09:51:03.661Z,11.90
2023-04-01T09:52:03.092Z,11.90
2023-04-01T09:53:03.153Z,11.90
2023-04-01T09:54:03.259Z,11.90
2023-04-01T09:55:02.797Z,11.90
2023-04-01T09:56:02.961Z,11.90
2023-04-01T09:57:02.999Z,11.90
2023-04-01T09:58:02.829Z,11.90
2023-04-01T09:59:02.904Z,11.90
2023-04-01T10:00:03.040Z,11.90
2023-04-01T10:01:02.897Z,11.90
2023-04-01T10:02:03.069Z,11.90
2023-04-01T10:03:02.932Z,11.90
2023-04-01T10:04:03.000Z,11.90
2023-04-01T10:05:02.948Z,12.00
2023-04-01T10:06:02.970Z,11.90
2023-04-01T10:07:03.054Z,11.90
2023-04-01T10:08:04.368Z,12.00
2023-04-01T10:09:03.505Z,12.00
2023-04-01T10:10:03.415Z,12.00
2023-04-01T10:11:03.515Z,12.00
2023-04-01T10:12:03.441Z,12.00
2023-04-01T10:13:03.650Z,12.00
2023-04-01T10:14:02.672Z,12.00
2023-04-01T10:15:02.658Z,12.00
2023-04-01T10:16:02.628Z,12.00
2023-04-01T10:17:02.764Z,12.00
2023-04-01T10:18:02.790Z,12.00
2023-04-01T10:19:02.784Z,12.00
2023-04-01T10:20:02.714Z,12.00
2023-04-01T10:21:02.815Z,12.00
2023-04-01T10:22:02.775Z,12.00
2023-04-01T10:23:02.900Z,12.00
2023-04-01T10:24:02.859Z,12.00
2023-04-01T10:25:04.919Z,12.00
2023-04-01T10:26:02.870Z,11.90
2023-04-01T10:27:02.816Z,11.90
2023-04-01T10:28:02.829Z,11.90
2023-04-01T10:29:02.860Z,11.90
2023-04-01T10:30:02.938Z,11.90
2023-04-01T10:31:02.912Z,11.90
2023-04-01T10:32:03.000Z,11.80
2023-04-01T10:33:02.972Z,11.80
2023-04-01T10:34:02.923Z,11.80
2023-04-01T10:35:02.921Z,11.80
2023-04-01T10:36:03.058Z,11.70
2023-04-01T10:37:02.948Z,11.70
2023-04-01T10:38:02.895Z,11.70
2023-04-01T10:39:02.962Z,11.70
2023-04-01T10:40:02.907Z,11.70
2023-04-01T10:41:02.972Z,11.70
2023-04-01T10:42:02.912Z,11.70
2023-04-01T10:43:02.963Z,11.70
2023-04-01T10:44:02.965Z,11.70
2023-04-01T10:45:03.014Z,11.70
2023-04-01T10:46:03.030Z,11.70
2023-04-01T10:47:03.137Z,11.70
2023-04-01T10:48:03.194Z,11.70
2023-04-01T10:49:03.316Z,11.70
2023-04-01T10:50:03.321Z,11.70
2023-04-01T10:51:03.292Z,11.70
2023-04-01T10:52:03.281Z,11.80
2023-04-01T10:53:04.282Z,11.80
2023-04-01T10:54:03.599Z,11.80
2023-04-01T10:55:03.490Z,11.80
2023-04-01T10:56:03.569Z,11.80
2023-04-01T10:57:02.744Z,11.80
2023-04-01T10:58:02.720Z,11.70
2023-04-01T10:59:02.859Z,11.80
2023-04-01T11:00:02.881Z,11.70
2023-04-01T11:01:02.858Z,11.80
2023-04-01T11:02:11.144Z,11.70
2023-04-01T11:03:02.906Z,11.80
2023-04-01T11:04:02.804Z,11.80
2023-04-01T11:05:02.881Z,11.70
2023-04-01T11:06:02.803Z,11.70
2023-04-01T11:07:02.837Z,11.80
2023-04-01T11:08:06.391Z,11.70
2023-04-01T11:09:03.000Z,11.70
2023-04-01T11:10:03.152Z,11.70
2023-04-01T11:11:03.018Z,11.70
2023-04-01T11:12:03.131Z,11.70
2023-04-01T11:13:03.157Z,11.70
2023-04-01T11:14:03.156Z,11.70
2023-04-01T11:15:03.107Z,11.70
2023-04-01T11:16:03.012Z,11.70
2023-04-01T11:17:03.151Z,11.70
2023-04-01T11:18:03.149Z,11.70
2023-04-01T11:19:03.181Z,11.70
2023-04-01T11:20:03.317Z,11.70
2023-04-01T11:21:03.168Z,11.70
2023-04-01T11:22:03.252Z,11.70
2023-04-01T11:23:03.539Z,11.70
2023-04-01T11:24:05.310Z,11.70
2023-04-01T11:25:03.452Z,11.70
2023-04-01T11:26:03.416Z,11.60
2023-04-01T11:27:03.545Z,11.70
2023-04-01T11:28:03.476Z,11.60
2023-04-01T11:29:03.482Z,11.60
2023-04-01T11:30:03.452Z,11.60
2023-04-01T11:31:03.364Z,11.60
2023-04-01T11:32:03.341Z,11.60
2023-04-01T11:33:03.457Z,11.60
2023-04-01T11:34:03.486Z,11.60
2023-04-01T11:35:03.482Z,11.60
2023-04-01T11:36:03.481Z,11.60
2023-04-01T11:37:03.530Z,11.60
2023-04-01T11:38:03.546Z,11.60
2023-04-01T11:39:03.590Z,11.60
2023-04-01T11:40:03.555Z,11.60
2023-04-01T11:41:03.528Z,11.60
2023-04-01T11:42:02.644Z,11.60
2023-04-01T11:43:02.725Z,11.60
2023-04-01T11:44:02.871Z,11.60
2023-04-01T11:45:02.929Z,11.60
2023-04-01T11:46:02.930Z,11.60
2023-04-01T11:47:02.884Z,11.60
2023-04-01T11:48:02.940Z,11.60
2023-04-01T11:49:02.886Z,11.60
2023-04-01T11:50:02.882Z,11.60
2023-04-01T11:51:02.955Z,11.60
2023-04-01T11:52:02.833Z,11.60
2023-04-01T11:53:02.890Z,11.60
2023-04-01T11:54:02.854Z,11.70
2023-04-01T11:55:02.847Z,11.70
2023-04-01T11:56:02.822Z,11.70
2023-04-01T11:57:02.843Z,11.70
2023-04-01T11:58:02.893Z,11.70
2023-04-01T11:59:02.843Z,11.70
2023-04-01T12:00:02.807Z,11.70
2023-04-01T12:01:02.772Z,11.80
2023-04-01T12:02:02.659Z,11.80
2023-04-01T12:03:02.928Z,11.80
2023-04-01T12:04:02.984Z,11.80
2023-04-01T12:05:02.728Z,11.80
2023-04-01T12:06:02.828Z,11.80
2023-04-01T12:07:02.824Z,11.80
2023-04-01T12:08:02.667Z,11.80
2023-04-01T12:09:02.732Z,11.90
2023-04-01T12:10:02.743Z,11.90
2023-04-01T12:11:02.681Z,11.90
2023-04-01T12:12:02.745Z,11.90
2023-04-01T12:13:02.780Z,11.90
2023-04-01T12:14:02.817Z,12.00
2023-04-01T12:15:02.796Z,12.00
2023-04-01T12:16:02.921Z,12.00
2023-04-01T12:17:02.819Z,12.00
2023-04-01T12:18:02.871Z,12.10
2023-04-01T12:19:02.824Z,12.10
2023-04-01T12:20:02.931Z,12.20
2023-04-01T12:21:02.994Z,12.20
2023-04-01T12:22:02.926Z,12.30
2023-04-01T12:23:02.878Z,12.30
2023-04-01T12:24:02.875Z,12.40
2023-04-01T12:25:02.765Z,12.40
2023-04-01T12:26:02.873Z,12.50
2023-04-01T12:27:02.865Z,12.50
2023-04-01T12:28:02.887Z,12.50
2023-04-01T12:29:02.802Z,12.60
2023-04-01T12:30:02.804Z,12.60
2023-04-01T12:31:02.878Z,12.60
2023-04-01T12:32:02.856Z,12.60
2023-04-01T12:33:03.015Z,12.70
2023-04-01T12:34:02.799Z,12.70
2023-04-01T12:35:02.877Z,12.70
2023-04-01T12:36:02.873Z,12.70
2023-04-01T12:37:02.926Z,12.70
2023-04-01T12:38:02.923Z,12.70
2023-04-01T12:39:02.914Z,12.60
2023-04-01T12:40:03.025Z,12.70
2023-04-01T12:41:03.093Z,12.60
2023-04-01T12:42:03.111Z,12.60
2023-04-01T12:43:02.987Z,12.60
2023-04-01T12:44:03.006Z,12.60
2023-04-01T12:45:03.008Z,12.60
2023-04-01T12:46:03.157Z,12.60
2023-04-01T12:47:03.151Z,12.60
2023-04-01T12:48:03.241Z,12.60
2023-04-01T12:49:02.963Z,12.60
2023-04-01T12:50:03.074Z,12.60
2023-04-01T12:51:03.089Z,12.60
2023-04-01T12:52:03.059Z,12.60
2023-04-01T12:53:03.104Z,12.50
2023-04-01T12:54:03.099Z,12.50
2023-04-01T12:55:03.229Z,12.50
2023-04-01T12:56:03.173Z,12.50
2023-04-01T12:57:03.305Z,12.40
2023-04-01T12:58:03.320Z,12.40
2023-04-01T12:59:03.454Z,12.40
2023-04-01T13:00:03.482Z,12.40
2023-04-01T13:01:03.454Z,12.40
2023-04-01T13:02:03.430Z,12.40
2023-04-01T13:03:03.710Z,12.40
2023-04-01T13:04:02.668Z,12.40
2023-04-01T13:05:02.783Z,12.40
2023-04-01T13:06:02.825Z,12.40